sensor_id;sensor_type;location;lat;lon;timestamp;P1;durP1;ratioP1;P2;durP2;ratioP2
64917;SDS011;52176;44.858;38.372;2022-08-25T02:34:30;25.50;;;4.03;;
64917;SDS011;52176;44.858;38.372;2022-08-25T02:36:56;44.00;;;5.32;;
64917;SDS011;52176;44.858;38.372;2022-08-25T02:39:22;28.55;;;4.43;;
64917;SDS011;52176;44.858;38.372;2022-08-25T02:41:48;31.20;;;5.28;;
64917;SDS011;52176;44.858;38.372;2022-08-25T02:44:14;43.55;;;4.97;;
64917;SDS011;52176;44.858;38.372;2022-08-25T02:46:40;30.48;;;4.63;;
64917;SDS011;52176;44.858;38.372;2022-08-25T02:49:06;33.10;;;5.13;;
64917;SDS011;52176;44.858;38.372;2022-08-25T02:51:33;32.05;;;4.57;;
64917;SDS011;52176;44.858;38.372;2022-08-25T02:54:00;36.35;;;4.70;;
64917;SDS011;52176;44.858;38.372;2022-08-25T02:56:28;40.35;;;5.38;;
64917;SDS011;52176;44.858;38.372;2022-08-25T02:58:54;31.30;;;4.43;;
64917;SDS011;52176;44.858;38.372;2022-08-25T03:01:21;43.63;;;6.25;;
64917;SDS011;52176;44.858;38.372;2022-08-25T03:03:48;32.25;;;4.75;;
64917;SDS011;52176;44.858;38.372;2022-08-25T03:06:17;26.85;;;3.97;;
64917;SDS011;52176;44.858;38.372;2022-08-25T03:08:47;33.28;;;4.05;;
64917;SDS011;52176;44.858;38.372;2022-08-25T03:11:14;29.90;;;5.35;;
64917;SDS011;52176;44.858;38.372;2022-08-25T03:13:40;35.05;;;5.95;;
64917;SDS011;52176;44.858;38.372;2022-08-25T03:16:06;38.20;;;6.00;;
64917;SDS011;52176;44.858;38.372;2022-08-25T03:18:33;37.10;;;7.15;;
64917;SDS011;52176;44.858;38.372;2022-08-25T03:20:59;30.10;;;7.53;;
64917;SDS011;52176;44.858;38.372;2022-08-25T03:23:25;34.05;;;8.00;;
64917;SDS011;52176;44.858;38.372;2022-08-25T03:25:54;44.90;;;6.88;;
64917;SDS011;52176;44.858;38.372;2022-08-25T03:28:39;34.38;;;7.38;;
64917;SDS011;52176;44.858;38.372;2022-08-25T03:31:06;50.97;;;12.02;;
64917;SDS011;52176;44.858;38.372;2022-08-25T03:33:32;73.60;;;20.75;;
64917;SDS011;52176;44.858;38.372;2022-08-25T03:35:59;60.38;;;13.73;;
64917;SDS011;52176;44.858;38.372;2022-08-25T03:38:25;41.45;;;9.02;;
64917;SDS011;52176;44.858;38.372;2022-08-25T03:40:52;31.48;;;7.35;;
64917;SDS011;52176;44.858;38.372;2022-08-25T03:43:18;28.65;;;6.10;;
64917;SDS011;52176;44.858;38.372;2022-08-25T03:45:45;34.00;;;5.68;;
64917;SDS011;52176;44.858;38.372;2022-08-25T03:48:12;61.22;;;5.63;;
64917;SDS011;52176;44.858;38.372;2022-08-25T03:50:46;32.40;;;5.20;;
64917;SDS011;52176;44.858;38.372;2022-08-25T03:53:14;41.90;;;8.82;;
64917;SDS011;52176;44.858;38.372;2022-08-25T03:55:40;32.38;;;7.93;;
64917;SDS011;52176;44.858;38.372;2022-08-25T03:58:06;58.88;;;18.73;;
64917;SDS011;52176;44.858;38.372;2022-08-25T04:00:33;98.80;;;33.92;;
64917;SDS011;52176;44.858;38.372;2022-08-25T04:02:59;74.80;;;22.25;;
64917;SDS011;52176;44.858;38.372;2022-08-25T04:05:26;100.93;;;33.10;;
64917;SDS011;52176;44.858;38.372;2022-08-25T04:07:52;74.93;;;21.63;;
64917;SDS011;52176;44.858;38.372;2022-08-25T04:10:19;57.42;;;15.32;;
64917;SDS011;52176;44.858;38.372;2022-08-25T04:12:45;60.03;;;12.38;;
64917;SDS011;52176;44.858;38.372;2022-08-25T04:15:14;58.15;;;14.13;;
64917;SDS011;52176;44.858;38.372;2022-08-25T04:17:40;41.92;;;6.88;;
64917;SDS011;52176;44.858;38.372;2022-08-25T04:20:07;45.97;;;7.43;;
64917;SDS011;52176;44.858;38.372;2022-08-25T04:22:35;39.22;;;6.90;;
64917;SDS011;52176;44.858;38.372;2022-08-25T04:25:02;43.53;;;7.43;;
64917;SDS011;52176;44.858;38.372;2022-08-25T04:27:29;44.53;;;6.78;;
64917;SDS011;52176;44.858;38.372;2022-08-25T04:29:55;48.53;;;6.45;;
64917;SDS011;52176;44.858;38.372;2022-08-25T04:32:21;43.35;;;5.20;;
64917;SDS011;52176;44.858;38.372;2022-08-25T04:34:47;44.00;;;4.90;;
64917;SDS011;52176;44.858;38.372;2022-08-25T04:37:13;28.63;;;4.97;;
64917;SDS011;52176;44.858;38.372;2022-08-25T04:39:39;45.80;;;6.60;;
64917;SDS011;52176;44.858;38.372;2022-08-25T04:42:06;59.50;;;5.63;;
64917;SDS011;52176;44.858;38.372;2022-08-25T04:44:32;41.35;;;5.32;;
64917;SDS011;52176;44.858;38.372;2022-08-25T04:46:58;38.88;;;6.00;;
64917;SDS011;52176;44.858;38.372;2022-08-25T04:49:25;36.83;;;6.40;;
64917;SDS011;52176;44.858;38.372;2022-08-25T04:51:52;41.30;;;7.05;;
64917;SDS011;52176;44.858;38.372;2022-08-25T04:54:18;49.75;;;8.45;;
64917;SDS011;52176;44.858;38.372;2022-08-25T04:56:46;65.50;;;9.90;;
64917;SDS011;52176;44.858;38.372;2022-08-25T04:59:14;50.28;;;7.82;;
64917;SDS011;52176;44.858;38.372;2022-08-25T05:01:41;55.97;;;8.50;;
64917;SDS011;52176;44.858;38.372;2022-08-25T05:04:10;38.88;;;9.02;;
64917;SDS011;52176;44.858;38.372;2022-08-25T05:06:38;46.38;;;9.60;;
64917;SDS011;52176;44.858;38.372;2022-08-25T05:09:05;36.25;;;8.02;;
64917;SDS011;52176;44.858;38.372;2022-08-25T06:02:49;25.15;;;6.50;;
64917;SDS011;52176;44.858;38.372;2022-08-25T06:05:16;17.08;;;3.28;;
64917;SDS011;52176;44.858;38.372;2022-08-25T06:07:45;17.42;;;4.20;;
64917;SDS011;52176;44.858;38.372;2022-08-25T06:10:12;19.50;;;3.10;;
64917;SDS011;52176;44.858;38.372;2022-08-25T06:12:40;16.10;;;2.95;;
64917;SDS011;52176;44.858;38.372;2022-08-25T08:55:38;12.23;;;2.10;;
64917;SDS011;52176;44.858;38.372;2022-08-25T08:58:12;18.67;;;2.75;;
64917;SDS011;52176;44.858;38.372;2022-08-25T09:00:45;12.65;;;2.28;;
64917;SDS011;52176;44.858;38.372;2022-08-25T09:03:18;13.65;;;2.10;;
64917;SDS011;52176;44.858;38.372;2022-08-25T09:05:49;11.45;;;2.28;;
64917;SDS011;52176;44.858;38.372;2022-08-25T09:08:19;15.38;;;2.35;;
64917;SDS011;52176;44.858;38.372;2022-08-25T12:00:03;16.40;;;2.50;;
64917;SDS011;52176;44.858;38.372;2022-08-25T19:55:05;79.72;;;7.25;;
64917;SDS011;52176;44.858;38.372;2022-08-25T19:57:31;76.65;;;8.07;;
64917;SDS011;52176;44.858;38.372;2022-08-25T19:59:58;88.22;;;8.55;;
64917;SDS011;52176;44.858;38.372;2022-08-25T20:02:27;79.97;;;8.82;;
64917;SDS011;52176;44.858;38.372;2022-08-25T20:04:54;76.85;;;8.60;;
64917;SDS011;52176;44.858;38.372;2022-08-25T20:07:24;78.97;;;7.35;;
64917;SDS011;52176;44.858;38.372;2022-08-25T20:09:52;65.25;;;8.07;;
64917;SDS011;52176;44.858;38.372;2022-08-25T20:12:19;69.93;;;7.45;;
64917;SDS011;52176;44.858;38.372;2022-08-25T20:14:47;70.28;;;6.82;;
64917;SDS011;52176;44.858;38.372;2022-08-25T20:17:14;74.78;;;6.90;;
64917;SDS011;52176;44.858;38.372;2022-08-25T20:19:40;78.80;;;7.68;;
64917;SDS011;52176;44.858;38.372;2022-08-25T20:22:07;78.13;;;7.65;;
64917;SDS011;52176;44.858;38.372;2022-08-25T20:24:33;87.95;;;7.78;;
64917;SDS011;52176;44.858;38.372;2022-08-25T20:27:18;82.35;;;7.78;;
64917;SDS011;52176;44.858;38.372;2022-08-25T20:29:46;79.15;;;7.30;;
64917;SDS011;52176;44.858;38.372;2022-08-25T20:32:13;82.03;;;7.88;;
64917;SDS011;52176;44.858;38.372;2022-08-25T20:34:41;78.32;;;10.93;;
64917;SDS011;52176;44.858;38.372;2022-08-25T20:37:07;106.05;;;10.93;;
64917;SDS011;52176;44.858;38.372;2022-08-25T20:39:34;86.55;;;12.15;;
64917;SDS011;52176;44.858;38.372;2022-08-25T20:42:01;103.22;;;9.75;;
64917;SDS011;52176;44.858;38.372;2022-08-25T20:44:28;75.63;;;7.88;;
64917;SDS011;52176;44.858;38.372;2022-08-25T20:47:08;86.50;;;7.95;;
64917;SDS011;52176;44.858;38.372;2022-08-25T20:49:35;78.22;;;7.25;;
64917;SDS011;52176;44.858;38.372;2022-08-25T20:52:03;80.07;;;7.28;;
64917;SDS011;52176;44.858;38.372;2022-08-25T20:54:30;77.78;;;8.02;;
64917;SDS011;52176;44.858;38.372;2022-08-25T20:56:56;90.32;;;8.77;;
64917;SDS011;52176;44.858;38.372;2022-08-25T20:59:23;59.10;;;7.22;;
64917;SDS011;52176;44.858;38.372;2022-08-25T21:01:49;89.38;;;7.20;;
64917;SDS011;52176;44.858;38.372;2022-08-25T21:04:17;80.03;;;7.25;;
64917;SDS011;52176;44.858;38.372;2022-08-25T21:06:45;81.90;;;8.93;;
64917;SDS011;52176;44.858;38.372;2022-08-25T21:09:14;63.78;;;7.80;;
64917;SDS011;52176;44.858;38.372;2022-08-25T21:11:42;84.28;;;6.88;;
64917;SDS011;52176;44.858;38.372;2022-08-25T21:14:09;74.35;;;7.20;;
64917;SDS011;52176;44.858;38.372;2022-08-25T21:16:35;92.72;;;8.52;;
64917;SDS011;52176;44.858;38.372;2022-08-25T21:19:02;77.65;;;7.60;;
64917;SDS011;52176;44.858;38.372;2022-08-25T21:21:29;79.72;;;7.35;;
64917;SDS011;52176;44.858;38.372;2022-08-25T21:23:55;93.30;;;9.73;;
64917;SDS011;52176;44.858;38.372;2022-08-25T21:26:21;83.50;;;9.75;;
64917;SDS011;52176;44.858;38.372;2022-08-25T21:28:49;92.05;;;9.20;;
64917;SDS011;52176;44.858;38.372;2022-08-25T21:31:16;95.68;;;9.07;;
64917;SDS011;52176;44.858;38.372;2022-08-25T21:33:44;86.72;;;8.93;;
64917;SDS011;52176;44.858;38.372;2022-08-25T21:36:12;81.18;;;8.48;;
64917;SDS011;52176;44.858;38.372;2022-08-25T21:38:40;76.85;;;9.00;;
64917;SDS011;52176;44.858;38.372;2022-08-25T21:41:10;71.30;;;8.35;;
64917;SDS011;52176;44.858;38.372;2022-08-25T22:32:44;73.00;;;7.50;;
64917;SDS011;52176;44.858;38.372;2022-08-25T22:35:10;60.10;;;8.30;;
64917;SDS011;52176;44.858;38.372;2022-08-25T22:37:36;74.65;;;7.30;;
64917;SDS011;52176;44.858;38.372;2022-08-25T22:40:02;77.13;;;10.80;;
64917;SDS011;52176;44.858;38.372;2022-08-25T22:42:29;96.88;;;17.98;;
64917;SDS011;52176;44.858;38.372;2022-08-25T22:44:55;91.18;;;8.45;;
64917;SDS011;52176;44.858;38.372;2022-08-25T22:47:21;68.05;;;6.95;;
64917;SDS011;52176;44.858;38.372;2022-08-25T22:49:47;68.97;;;7.00;;
64917;SDS011;52176;44.858;38.372;2022-08-25T22:52:13;66.90;;;8.32;;
64917;SDS011;52176;44.858;38.372;2022-08-25T22:54:40;67.70;;;6.80;;
64917;SDS011;52176;44.858;38.372;2022-08-25T22:57:06;65.88;;;9.07;;
64917;SDS011;52176;44.858;38.372;2022-08-25T22:59:32;67.90;;;9.25;;
64917;SDS011;52176;44.858;38.372;2022-08-25T23:01:58;99.47;;;9.95;;
64917;SDS011;52176;44.858;38.372;2022-08-25T23:04:24;65.35;;;8.55;;
64917;SDS011;52176;44.858;38.372;2022-08-25T23:06:50;81.40;;;8.65;;
64917;SDS011;52176;44.858;38.372;2022-08-25T23:09:16;76.25;;;8.57;;
64917;SDS011;52176;44.858;38.372;2022-08-25T23:11:42;67.55;;;7.20;;
64917;SDS011;52176;44.858;38.372;2022-08-25T23:14:08;60.35;;;7.72;;
